Time;durP1;ratioP1;P1;durP2;ratioP2;P2;SDS_P1;SDS_P2;PMS_P1;PMS_P2;Temp;Humidity;BMP_temperature;BMP_pressure;BME280_temperature;BME280_humidity;BME280_pressure;Samples;Min_cycle;Max_cycle;Signal;HPM_P1;HPM_P2
2021/06/01 00:02:19;;;;;;;10.43;5.82;;;17.00;99.90;;;;;;5002038;28;20329;-73
2021/06/01 00:04:44;;;;;;;12.13;5.07;;;17.10;99.90;;;;;;5014065;28;20018;-73
2021/06/01 00:07:11;;;;;;;11.57;5.28;;;17.00;99.60;;;;;;5019848;28;20659;-73
2021/06/01 00:09:36;;;;;;;8.07;5.45;;;16.90;99.70;;;;;;5011525;28;20022;-74
2021/06/01 00:12:03;;;;;;;8.75;4.90;;;17.00;99.40;;;;;;5029159;28;20014;-74
2021/06/01 00:14:28;;;;;;;9.27;4.97;;;17.00;99.30;;;;;;5027195;28;20039;-74
2021/06/01 00:16:55;;;;;;;8.07;5.68;;;17.00;99.40;;;;;;5018394;28;20018;-74
2021/06/01 00:19:21;;;;;;;8.90;5.40;;;16.90;99.50;;;;;;5022413;28;20061;-73
2021/06/01 00:21:47;;;;;;;10.35;5.18;;;16.80;99.90;;;;;;5028132;28;20022;-74
2021/06/01 00:24:13;;;;;;;10.27;5.60;;;16.80;99.90;;;;;;5028569;28;20030;-74
2021/06/01 00:26:40;;;;;;;7.95;4.78;;;16.80;99.70;;;;;;5020165;28;20025;-75
2021/06/01 00:29:06;;;;;;;7.93;4.95;;;16.90;99.90;;;;;;5020912;28;20466;-74
2021/06/01 00:31:33;;;;;;;8.57;4.45;;;16.90;99.10;;;;;;5014208;28;20044;-75
2021/06/01 00:34:05;;;;;;;7.47;4.15;;;16.90;99.50;;;;;;5020707;28;20033;-73
2021/06/01 00:36:32;;;;;;;8.27;5.00;;;16.80;99.40;;;;;;5007217;28;20026;-74
2021/06/01 00:38:58;;;;;;;9.85;4.70;;;16.70;99.60;;;;;;5008775;28;20643;-75
2021/06/01 00:41:24;;;;;;;10.18;4.60;;;16.70;99.70;;;;;;5013276;28;20113;-74
2021/06/01 00:43:50;;;;;;;6.55;4.40;;;16.80;99.30;;;;;;4996780;28;20018;-74
2021/06/01 00:46:15;;;;;;;5.45;3.63;;;16.80;99.70;;;;;;4993430;28;20499;-74
2021/06/01 00:48:41;;;;;;;8.07;4.63;;;16.70;99.70;;;;;;4995526;28;20594;-72
2021/06/01 00:51:07;;;;;;;9.52;3.92;;;16.70;99.80;;;;;;5007557;28;20107;-73
2021/06/01 00:53:33;;;;;;;7.18;4.13;;;16.60;99.70;;;;;;5004834;28;20053;-74
2021/06/01 00:55:59;;;;;;;5.38;3.70;;;16.60;99.90;;;;;;4994869;28;20030;-74
2021/06/01 00:58:25;;;;;;;6.22;4.05;;;16.60;99.40;;;;;;4997078;28;20638;-75
2021/06/01 01:03:29;;;;;;;8.85;3.83;;;16.70;99.50;;;;;;4995071;28;20026;-74
2021/06/01 01:06:02;;;;;;;5.75;2.75;;;16.70;99.70;;;;;;4996504;28;20105;-74
2021/06/01 01:08:53;;;;;;;4.13;3.25;;;16.60;99.60;;;;;;4994604;28;20029;-75
2021/06/01 01:11:32;;;;;;;4.85;3.45;;;16.40;99.80;;;;;;5003707;28;20038;-74
2021/06/01 01:14:23;;;;;;;5.80;2.95;;;16.40;99.90;;;;;;5024622;28;20048;-74
2021/06/01 01:16:58;;;;;;;5.97;3.25;;;16.40;99.90;;;;;;5025325;28;20029;-75
2021/06/01 01:20:02;;;;;;;7.40;3.38;;;16.40;99.80;;;;;;5024122;28;20018;-74
2021/06/01 01:22:28;;;;;;;5.85;2.72;;;16.40;99.30;;;;;;5010507;28;20030;-73
2021/06/01 01:25:04;;;;;;;3.92;3.00;;;16.30;99.90;;;;;;5017232;28;20026;-75
2021/06/01 01:27:42;;;;;;;7.07;3.13;;;16.40;99.50;;;;;;5007207;28;20023;-75
2021/06/01 01:30:11;;;;;;;3.70;2.85;;;16.50;99.80;;;;;;5005326;28;20061;-74
2021/06/01 01:32:48;;;;;;;6.68;2.70;;;16.40;99.90;;;;;;5003833;28;20025;-75
2021/06/01 01:35:16;;;;;;;4.65;3.33;;;16.20;99.90;;;;;;5011116;28;20025;-74
2021/06/01 01:37:44;;;;;;;2.92;2.55;;;16.20;99.90;;;;;;5006819;28;20025;-74
2021/06/01 01:40:11;;;;;;;7.57;3.17;;;16.20;99.90;;;;;;5004495;28;20090;-75
2021/06/01 01:42:42;;;;;;;4.07;2.30;;;16.30;99.90;;;;;;5013137;28;20018;-73
2021/06/01 01:45:31;;;;;;;3.53;2.72;;;16.40;99.80;;;;;;5010856;28;20018;-74
2021/06/01 01:50:48;;;;;;;4.75;3.05;;;16.30;99.70;;;;;;5015055;28;20029;-76
2021/06/01 01:53:18;;;;;;;6.22;2.45;;;16.30;99.50;;;;;;5026451;28;20026;-73
2021/06/01 01:55:47;;;;;;;8.13;2.75;;;16.20;99.40;;;;;;5013528;28;20050;-73
2021/06/01 01:58:14;;;;;;;6.18;2.55;;;16.30;99.40;;;;;;5013365;28;20014;-74
2021/06/01 02:00:41;;;;;;;7.72;2.47;;;16.10;99.90;;;;;;4993710;28;20407;-74
2021/06/01 02:03:08;;;;;;;3.15;2.25;;;15.90;99.90;;;;;;4996922;28;20034;-73
2021/06/01 02:05:34;;;;;;;5.43;2.78;;;15.90;99.90;;;;;;5000447;28;20414;-73
2021/06/01 02:08:00;;;;;;;8.18;3.10;;;15.70;99.90;;;;;;5011421;28;20057;-74
2021/06/01 02:10:25;;;;;;;5.95;2.58;;;15.80;99.90;;;;;;5005715;28;20014;-73
2021/06/01 02:12:51;;;;;;;4.55;2.40;;;15.80;99.90;;;;;;4996281;28;20018;-74
2021/06/01 02:15:17;;;;;;;3.92;2.28;;;15.80;99.90;;;;;;5007689;28;20033;-74
2021/06/01 02:17:42;;;;;;;5.93;2.13;;;15.80;99.90;;;;;;5012170;28;20033;-74
2021/06/01 02:20:10;;;;;;;3.67;2.65;;;15.80;99.90;;;;;;5009283;28;20097;-74
2021/06/01 02:25:39;;;;;;;5.55;2.58;;;15.60;99.90;;;;;;5027950;28;20042;-73
2021/06/01 02:28:26;;;;;;;5.43;2.67;;;15.50;99.90;;;;;;5001758;28;20132;-75
2021/06/01 02:31:12;;;;;;;3.85;2.47;;;15.50;99.90;;;;;;5027039;28;20022;-73
2021/06/01 02:33:42;;;;;;;3.42;2.30;;;15.50;99.90;;;;;;5025162;28;20061;-75
2021/06/01 02:36:08;;;;;;;7.68;2.95;;;15.40;99.90;;;;;;5021082;28;20034;-74
2021/06/01 02:38:34;;;;;;;4.60;2.78;;;15.30;99.90;;;;;;5013803;28;20085;-74
2021/06/01 02:41:04;;;;;;;3.22;2.47;;;15.30;99.90;;;;;;5008202;28;20026;-73
2021/06/01 02:43:31;;;;;;;2.55;2.35;;;15.30;99.90;;;;;;4996674;28;20318;-74
2021/06/01 02:45:57;;;;;;;5.30;3.30;;;15.40;99.90;;;;;;5003717;28;20034;-74
2021/06/01 02:48:23;;;;;;;4.13;2.60;;;15.30;99.90;;;;;;5001707;28;20049;-73
2021/06/01 02:50:56;;;;;;;4.93;2.42;;;15.30;99.90;;;;;;4997734;28;20046;-75
2021/06/01 02:53:22;;;;;;;4.40;2.70;;;15.10;99.90;;;;;;5006111;28;20058;-74
2021/06/01 02:55:49;;;;;;;18.95;3.17;;;15.10;99.90;;;;;;5013649;28;20040;-73
2021/06/01 02:58:15;;;;;;;5.35;2.60;;;15.00;99.90;;;;;;5020226;28;20081;-74
2021/06/01 03:00:43;;;;;;;7.07;3.13;;;15.00;99.90;;;;;;4994245;28;20054;-74
2021/06/01 03:03:13;;;;;;;5.93;2.50;;;14.90;99.90;;;;;;4992404;28;20037;-74
2021/06/01 03:05:43;;;;;;;6.95;2.70;;;14.90;99.90;;;;;;4994263;28;20022;-75
2021/06/01 03:08:26;;;;;;;3.33;2.55;;;14.90;99.90;;;;;;5009897;28;20031;-75
2021/06/01 03:10:52;;;;;;;6.25;2.55;;;14.80;99.90;;;;;;4999826;28;20045;-74
2021/06/01 03:13:18;;;;;;;5.72;2.20;;;14.80;99.90;;;;;;5009009;28;20030;-74
2021/06/01 03:15:43;;;;;;;3.97;3.15;;;14.80;99.90;;;;;;5001867;28;20048;-75
2021/06/01 03:18:09;;;;;;;5.05;2.97;;;14.80;99.90;;;;;;4990550;28;20436;-75
2021/06/01 03:20:34;;;;;;;15.88;3.22;;;14.80;99.90;;;;;;4992091;28;20018;-76
2021/06/01 03:23:00;;;;;;;3.65;2.65;;;14.80;99.90;;;;;;4999733;28;20033;-75
2021/06/01 03:25:26;;;;;;;4.40;2.65;;;14.80;99.90;;;;;;5002798;28;20096;-75
2021/06/01 03:27:51;;;;;;;6.85;2.60;;;14.70;99.90;;;;;;5002658;28;20030;-75
2021/06/01 03:30:17;;;;;;;9.15;2.55;;;14.70;99.90;;;;;;5004246;28;20014;-75
2021/06/01 03:32:43;;;;;;;3.63;2.67;;;14.70;99.90;;;;;;5009717;28;20518;-75
2021/06/01 03:35:09;;;;;;;5.47;2.53;;;14.70;99.90;;;;;;4998562;28;20030;-75
2021/06/01 03:37:35;;;;;;;4.18;2.85;;;14.60;99.90;;;;;;4995606;28;20034;-73
2021/06/01 03:40:00;;;;;;;4.78;2.60;;;14.60;99.90;;;;;;4997401;28;20022;-75
2021/06/01 03:42:26;;;;;;;3.83;2.63;;;14.60;99.90;;;;;;5003703;28;20022;-75
2021/06/01 03:44:52;;;;;;;4.53;2.83;;;14.50;99.90;;;;;;4993021;28;20512;-75
2021/06/01 03:47:17;;;;;;;4.88;3.08;;;14.50;99.90;;;;;;5001235;28;20543;-74
2021/06/01 03:49:43;;;;;;;6.68;2.85;;;14.40;99.90;;;;;;5004038;28;20021;-75
2021/06/01 03:52:09;;;;;;;6.03;2.78;;;14.40;99.90;;;;;;5009172;28;20069;-75
2021/06/01 03:54:39;;;;;;;8.27;2.67;;;14.40;99.90;;;;;;5015928;28;20018;-73
2021/06/01 03:57:17;;;;;;;6.53;2.83;;;14.40;99.90;;;;;;5021061;28;20029;-74
2021/06/01 03:59:46;;;;;;;4.10;2.83;;;14.50;99.90;;;;;;5019314;28;20049;-73
2021/06/01 04:02:32;;;;;;;7.57;2.97;;;14.40;99.90;;;;;;5029380;28;20010;-73
2021/06/01 04:04:59;;;;;;;3.85;2.75;;;14.30;99.90;;;;;;5017378;28;20030;-74
2021/06/01 04:07:35;;;;;;;5.10;3.17;;;14.30;99.90;;;;;;5018140;28;20045;-75
2021/06/01 04:10:04;;;;;;;4.00;2.70;;;14.30;99.90;;;;;;5020250;28;20026;-75
2021/06/01 04:12:30;;;;;;;6.00;2.95;;;14.40;99.90;;;;;;5030029;28;20062;-74
2021/06/01 04:14:56;;;;;;;3.95;2.90;;;14.30;99.90;;;;;;5030780;28;20046;-74
2021/06/01 04:17:22;;;;;;;7.15;3.40;;;14.30;99.90;;;;;;5000004;28;20109;-76
2021/06/01 04:19:47;;;;;;;3.67;2.85;;;14.40;99.90;;;;;;5010824;28;20030;-76
2021/06/01 04:22:13;;;;;;;6.00;3.00;;;14.50;99.90;;;;;;5004390;28;20029;-76
2021/06/01 04:24:39;;;;;;;6.93;3.40;;;14.50;99.90;;;;;;5008675;28;20030;-75
2021/06/01 04:27:05;;;;;;;4.72;3.10;;;14.40;99.90;;;;;;4999827;28;20064;-75
2021/06/01 04:29:31;;;;;;;6.13;3.35;;;14.50;99.90;;;;;;5000239;28;20622;-74
2021/06/01 04:31:56;;;;;;;4.78;3.22;;;14.50;99.90;;;;;;4992842;28;20102;-75
2021/06/01 04:34:22;;;;;;;8.27;3.38;;;14.50;99.90;;;;;;4995121;28;20018;-75
2021/06/01 04:36:48;;;;;;;5.28;3.58;;;14.40;99.90;;;;;;4993951;28;20033;-75
2021/06/01 04:39:13;;;;;;;8.93;3.90;;;14.40;99.90;;;;;;4998587;28;20050;-75
2021/06/01 04:41:39;;;;;;;6.57;3.97;;;14.50;99.90;;;;;;4993432;28;20081;-72
2021/06/01 04:44:06;;;;;;;6.68;4.15;;;14.50;99.90;;;;;;5000449;28;20026;-75
2021/06/01 04:46:32;;;;;;;5.53;3.58;;;14.60;99.90;;;;;;5000854;28;20295;-73
2021/06/01 04:48:58;;;;;;;5.43;3.75;;;14.70;99.90;;;;;;4999552;28;20101;-75
2021/06/01 04:51:23;;;;;;;5.47;3.28;;;14.70;99.90;;;;;;4997023;28;20139;-76
2021/06/01 04:53:54;;;;;;;6.63;3.83;;;14.70;99.90;;;;;;4992364;28;20559;-76
2021/06/01 04:56:20;;;;;;;4.40;3.30;;;14.70;99.90;;;;;;4995421;28;20039;-77
2021/06/01 04:58:48;;;;;;;5.22;3.58;;;14.70;99.90;;;;;;5001454;28;20054;-75
2021/06/01 05:01:14;;;;;;;5.50;3.90;;;14.80;99.90;;;;;;5000441;28;20033;-79
2021/06/01 05:03:40;;;;;;;7.95;4.45;;;14.80;99.90;;;;;;4994819;28;20030;-76
2021/06/01 05:06:07;;;;;;;5.07;3.90;;;14.80;99.90;;;;;;4996250;28;20137;-75
2021/06/01 05:08:33;;;;;;;7.28;4.50;;;14.80;99.90;;;;;;4997141;28;20018;-75
2021/06/01 05:10:59;;;;;;;5.53;3.88;;;14.80;99.90;;;;;;4998800;28;20416;-76
2021/06/01 05:13:25;;;;;;;6.93;4.53;;;14.80;99.90;;;;;;5005495;28;20109;-76
2021/06/01 05:15:51;;;;;;;8.15;4.40;;;14.80;99.90;;;;;;5005406;28;20032;-76
2021/06/01 05:18:18;;;;;;;7.45;4.63;;;14.80;99.90;;;;;;4995938;28;20054;-77
2021/06/01 05:20:48;;;;;;;8.85;4.50;;;14.80;99.90;;;;;;5006659;28;20137;-77
2021/06/01 05:23:16;;;;;;;6.35;4.32;;;14.80;99.90;;;;;;5006073;28;20038;-77
2021/06/01 05:25:42;;;;;;;8.50;4.47;;;14.90;99.90;;;;;;5007287;28;20332;-77
2021/06/01 05:28:08;;;;;;;6.45;4.20;;;15.00;99.90;;;;;;4999080;28;20026;-75
2021/06/01 05:30:42;;;;;;;11.40;4.68;;;15.00;99.90;;;;;;5008455;28;20594;-76
2021/06/01 05:33:12;;;;;;;7.57;4.38;;;15.10;99.90;;;;;;5009268;28;20018;-75
2021/06/01 05:36:01;;;;;;;7.70;5.30;;;15.20;99.90;;;;;;5005720;28;20026;-77
2021/06/01 05:38:30;;;;;;;8.25;4.63;;;15.20;99.90;;;;;;5010124;28;20028;-77
2021/06/01 05:40:57;;;;;;;10.35;4.35;;;15.30;99.90;;;;;;5013345;28;20013;-76
2021/06/01 05:43:24;;;;;;;9.50;4.78;;;15.40;99.90;;;;;;5019885;28;20026;-76
2021/06/01 05:45:51;;;;;;;6.22;4.97;;;15.40;99.90;;;;;;5015323;28;20014;-78
2021/06/01 05:48:18;;;;;;;8.57;4.43;;;15.50;99.90;;;;;;5026119;28;20069;-77
2021/06/01 05:50:47;;;;;;;7.28;4.57;;;15.50;99.90;;;;;;5014837;28;20125;-75
2021/06/01 05:53:17;;;;;;;10.27;4.50;;;15.70;99.90;;;;;;5008652;28;20031;-77
2021/06/01 05:55:44;;;;;;;8.38;4.85;;;15.80;99.90;;;;;;4999451;28;20082;-76
2021/06/01 05:58:10;;;;;;;7.47;4.38;;;16.00;99.90;;;;;;5003489;28;20017;-76
2021/06/01 06:00:35;;;;;;;10.00;5.30;;;16.10;99.90;;;;;;5013051;28;20040;-75
2021/06/01 06:03:02;;;;;;;8.02;4.72;;;16.30;99.90;;;;;;4997920;28;20554;-75
2021/06/01 06:05:28;;;;;;;5.13;4.15;;;16.50;99.90;;;;;;5012892;28;20125;-77
2021/06/01 06:07:54;;;;;;;7.47;5.22;;;16.80;99.90;;;;;;5018238;28;20106;-77
2021/06/01 06:10:20;;;;;;;8.10;5.22;;;16.90;99.90;;;;;;5020595;28;20275;-77
2021/06/01 06:12:46;;;;;;;8.77;4.57;;;17.00;99.90;;;;;;5014961;28;20029;-77
2021/06/01 06:15:17;;;;;;;7.85;4.22;;;17.10;99.90;;;;;;5014695;28;20030;-76
2021/06/01 06:17:53;;;;;;;8.23;5.28;;;17.20;99.90;;;;;;5008379;28;20109;-77
2021/06/01 06:20:20;;;;;;;10.75;5.38;;;17.50;99.90;;;;;;5028040;28;20021;-76
2021/06/01 06:22:46;;;;;;;9.18;4.95;;;17.90;99.90;;;;;;5031871;28;20022;-77
2021/06/01 06:25:12;;;;;;;6.85;5.18;;;18.10;99.90;;;;;;5020602;28;20114;-76
2021/06/01 06:27:38;;;;;;;8.50;4.85;;;17.90;99.90;;;;;;5016833;28;20046;-76
2021/06/01 06:30:06;;;;;;;8.90;5.47;;;17.80;99.90;;;;;;5015876;28;20037;-76
2021/06/01 06:32:32;;;;;;;7.95;4.38;;;18.00;99.90;;;;;;5020849;28;20022;-77
2021/06/01 06:34:57;;;;;;;8.18;4.45;;;18.20;99.90;;;;;;5026982;28;20043;-77
2021/06/01 06:37:23;;;;;;;13.10;5.60;;;18.70;99.90;;;;;;5022466;28;20092;-77
2021/06/01 06:39:49;;;;;;;11.18;5.35;;;18.90;99.90;;;;;;5017516;28;20412;-75
2021/06/01 06:42:17;;;;;;;11.00;5.53;;;19.00;99.90;;;;;;5002816;28;20410;-76
2021/06/01 06:44:53;;;;;;;9.35;5.13;;;19.20;99.90;;;;;;5010180;28;20076;-76
2021/06/01 06:47:27;;;;;;;8.35;4.43;;;18.80;99.90;;;;;;5005811;28;20093;-75
2021/06/01 06:49:55;;;;;;;9.05;5.57;;;19.30;99.90;;;;;;5006351;28;20194;-76
2021/06/01 06:52:22;;;;;;;16.42;5.03;;;19.40;99.90;;;;;;5007732;28;20074;-77
2021/06/01 06:54:47;;;;;;;8.20;5.63;;;19.00;99.90;;;;;;5004392;28;20021;-76
2021/06/01 06:57:15;;;;;;;13.13;5.80;;;19.30;99.90;;;;;;4993753;28;20443;-74
2021/06/01 06:59:41;;;;;;;9.35;4.57;;;19.40;99.90;;;;;;5015509;28;20241;-76
2021/06/01 07:02:07;;;;;;;9.63;5.28;;;19.70;99.90;;;;;;4994408;28;20076;-76
2021/06/01 07:04:32;;;;;;;8.50;5.43;;;19.60;99.90;;;;;;4994572;28;20499;-77
2021/06/01 07:06:59;;;;;;;10.65;5.50;;;19.20;99.90;;;;;;4992424;28;20034;-76
2021/06/01 07:09:26;;;;;;;15.80;5.85;;;19.10;99.90;;;;;;5009524;28;20040;-76
2021/06/01 07:11:51;;;;;;;14.52;5.85;;;19.00;99.90;;;;;;5001199;28;20019;-76
2021/06/01 07:14:17;;;;;;;6.88;4.57;;;19.00;99.90;;;;;;5002761;28;20044;-76
2021/06/01 07:16:45;;;;;;;6.95;4.85;;;19.00;99.90;;;;;;4997404;28;20014;-76
2021/06/01 07:19:12;;;;;;;15.05;5.55;;;19.30;99.90;;;;;;4997516;28;20030;-75
2021/06/01 07:21:38;;;;;;;12.35;5.80;;;19.30;99.90;;;;;;4994874;28;20014;-75
2021/06/01 07:24:10;;;;;;;10.25;5.50;;;19.40;99.90;;;;;;5006678;28;20313;-75
2021/06/01 07:26:36;;;;;;;9.55;5.70;;;19.50;99.90;;;;;;4993001;28;20436;-76
2021/06/01 07:29:03;;;;;;;8.30;5.28;;;19.30;99.90;;;;;;4994986;28;20034;-76
2021/06/01 07:31:29;;;;;;;8.95;5.40;;;19.40;99.90;;;;;;5001291;28;20050;-75
2021/06/01 07:33:54;;;;;;;18.83;6.15;;;19.20;99.90;;;;;;4995515;28;20428;-78
2021/06/01 07:36:20;;;;;;;9.30;5.20;;;19.40;99.90;;;;;;4997386;28;20034;-77
2021/06/01 07:38:47;;;;;;;9.15;4.65;;;19.70;99.90;;;;;;4995319;28;20093;-76
2021/06/01 07:41:13;;;;;;;15.15;5.75;;;19.80;99.90;;;;;;5003857;28;20025;-77
2021/06/01 07:43:38;;;;;;;7.45;5.30;;;19.80;99.90;;;;;;4996489;28;20026;-77
2021/06/01 07:46:05;;;;;;;8.63;5.35;;;19.80;99.90;;;;;;5010043;28;20037;-76
2021/06/01 07:48:36;;;;;;;13.25;5.75;;;19.60;99.90;;;;;;5010675;28;20040;-76
2021/06/01 07:51:03;;;;;;;12.05;5.05;;;19.60;99.90;;;;;;5013845;28;20044;-74
2021/06/01 07:53:29;;;;;;;11.50;5.32;;;19.70;99.90;;;;;;5014484;28;20022;-76
2021/06/01 07:55:55;;;;;;;8.27;5.50;;;19.50;99.90;;;;;;5025045;28;20044;-76
2021/06/01 07:58:21;;;;;;;8.35;5.30;;;19.70;99.90;;;;;;5022166;28;20018;-76
2021/06/01 08:00:47;;;;;;;7.85;5.30;;;19.60;99.90;;;;;;5032839;28;20048;-76
2021/06/01 08:03:16;;;;;;;11.10;5.25;;;19.50;99.90;;;;;;5020496;28;20030;-75
2021/06/01 08:05:43;;;;;;;9.45;5.00;;;19.60;99.90;;;;;;5022089;28;20023;-75
2021/06/01 08:08:08;;;;;;;10.88;5.25;;;19.90;99.90;;;;;;5021287;28;20103;-76
2021/06/01 08:10:35;;;;;;;7.90;4.97;;;20.20;99.90;;;;;;5026668;28;20045;-75
2021/06/01 08:13:01;;;;;;;7.18;5.13;;;20.50;99.90;;;;;;5025530;28;20061;-76
2021/06/01 08:15:28;;;;;;;10.73;5.32;;;20.70;99.90;;;;;;5027467;28;20077;-75
2021/06/01 08:17:59;;;;;;;10.00;4.35;;;20.60;99.90;;;;;;5019098;28;20032;-76
2021/06/01 08:20:34;;;;;;;10.27;5.10;;;20.80;99.90;;;;;;5020817;28;20066;-75
2021/06/01 08:23:00;;;;;;;9.10;4.30;;;20.50;99.80;;;;;;5018460;28;20030;-75
2021/06/01 08:25:25;;;;;;;8.63;4.25;;;20.60;99.90;;;;;;5004494;28;20107;-75
2021/06/01 08:27:52;;;;;;;9.68;4.78;;;20.60;99.40;;;;;;5009150;28;20022;-76
2021/06/01 08:30:19;;;;;;;7.05;4.47;;;20.90;99.90;;;;;;4993527;28;20018;-75
2021/06/01 08:32:45;;;;;;;6.45;4.95;;;21.00;99.30;;;;;;5006424;28;20122;-76
2021/06/01 08:35:11;;;;;;;20.25;4.80;;;21.10;98.90;;;;;;5003398;28;20182;-75
2021/06/01 08:37:38;;;;;;;7.35;4.30;;;21.10;98.40;;;;;;5002371;28;20450;-73
2021/06/01 08:40:04;;;;;;;7.45;4.15;;;20.90;97.70;;;;;;5010226;28;20090;-76
2021/06/01 08:42:30;;;;;;;9.93;4.05;;;20.80;98.80;;;;;;5004754;28;20064;-76
2021/06/01 08:44:55;;;;;;;6.22;3.30;;;20.90;97.90;;;;;;5003179;28;20061;-77
2021/06/01 08:47:21;;;;;;;6.13;3.65;;;21.20;98.40;;;;;;4994033;28;20027;-76
2021/06/01 08:49:48;;;;;;;8.45;3.95;;;21.30;97.10;;;;;;4991900;28;20042;-76
2021/06/01 08:52:15;;;;;;;7.38;3.80;;;21.30;95.80;;;;;;4997096;28;20058;-75
2021/06/01 08:54:43;;;;;;;7.65;3.40;;;21.30;96.20;;;;;;5008127;28;20023;-75
2021/06/01 08:57:10;;;;;;;6.07;3.38;;;21.50;95.90;;;;;;5025429;28;20026;-76
2021/06/01 08:59:36;;;;;;;4.63;3.58;;;21.80;95.90;;;;;;5017312;28;20026;-76
2021/06/01 09:02:03;;;;;;;5.07;3.58;;;21.80;94.50;;;;;;4998463;28;20014;-75
2021/06/01 09:04:49;;;;;;;6.78;3.90;;;21.90;94.90;;;;;;4993659;28;20029;-75
2021/06/01 09:07:29;;;;;;;8.20;2.97;;;21.80;94.20;;;;;;5005753;28;20431;-76
2021/06/01 09:21:16;;;;;;;4.93;3.08;;;23.00;87.00;;;;;;4993649;28;20029;-75
2021/06/01 09:23:56;;;;;;;5.47;3.00;;;22.80;85.20;;;;;;4998898;28;20094;-77
2021/06/01 09:29:28;;;;;;;4.65;3.10;;;22.90;86.20;;;;;;5013441;28;20030;-77
2021/06/01 09:32:12;;;;;;;8.90;3.53;;;22.80;82.80;;;;;;4997642;28;20381;-76
2021/06/01 09:34:51;;;;;;;4.65;3.08;;;22.70;83.90;;;;;;5002768;28;20026;-75
2021/06/01 09:37:19;;;;;;;3.08;2.78;;;22.90;83.20;;;;;;4996126;28;20488;-76
2021/06/01 09:40:01;;;;;;;6.10;2.72;;;23.20;82.30;;;;;;5009523;28;20336;-77
2021/06/01 09:42:28;;;;;;;;;;;23.60;79.20;;;;;;4998947;28;20109;-75
2021/06/01 09:45:10;;;;;;;4.57;3.33;;;23.80;77.80;;;;;;4997339;28;19912;-75
2021/06/01 09:48:04;;;;;;;2.30;2.10;;;23.60;73.90;;;;;;5001711;28;20109;-75
2021/06/01 09:53:10;;;;;;;2.97;2.37;;;23.40;72.30;;;;;;5004684;28;20022;-77
2021/06/01 09:55:47;;;;;;;5.57;2.70;;;23.70;72.70;;;;;;5011079;28;20022;-75
2021/06/01 09:58:16;;;;;;;4.57;2.95;;;23.90;71.10;;;;;;5013073;28;20022;-76
2021/06/01 10:00:44;;;;;;;5.68;3.00;;;23.70;69.40;;;;;;5013313;28;20010;-76
2021/06/01 10:03:17;;;;;;;8.40;3.03;;;23.50;68.60;;;;;;5008632;28;20444;-76
2021/06/01 10:05:43;;;;;;;4.55;2.55;;;23.70;69.50;;;;;;5000578;28;20042;-77
2021/06/01 10:08:22;;;;;;;4.13;2.97;;;23.90;69.50;;;;;;5007572;28;20396;-76
2021/06/01 10:10:53;;;;;;;3.45;2.17;;;23.70;70.20;;;;;;4997767;28;20440;-76
2021/06/01 10:13:21;;;;;;;3.65;2.70;;;23.70;67.60;;;;;;5003703;28;20037;-77
2021/06/01 10:15:48;;;;;;;5.03;1.98;;;23.60;66.30;;;;;;5016121;28;20030;-77
2021/06/01 10:18:17;;;;;;;3.35;2.10;;;23.60;68.10;;;;;;5021847;28;20024;-77
2021/06/01 10:20:45;;;;;;;3.40;2.00;;;23.70;69.00;;;;;;4999359;28;20026;-75
2021/06/01 10:23:12;;;;;;;4.05;2.53;;;23.90;66.20;;;;;;5000690;28;20082;-76
2021/06/01 10:25:38;;;;;;;3.00;2.13;;;24.10;63.60;;;;;;5018107;28;20083;-75
2021/06/01 10:28:08;;;;;;;3.53;2.70;;;24.10;64.20;;;;;;5004118;28;20022;-76
2021/06/01 10:30:40;;;;;;;5.72;2.10;;;23.80;61.90;;;;;;5010564;28;20102;-77
2021/06/01 10:33:13;;;;;;;4.97;2.67;;;23.80;63.90;;;;;;5011536;28;20030;-74
2021/06/01 10:35:45;;;;;;;3.25;2.45;;;23.80;62.70;;;;;;5011773;28;20155;-74
2021/06/01 10:49:59;;;;;;;2.58;2.20;;;23.70;61.10;;;;;;5028816;28;20384;-77
2021/06/01 10:52:09;;;;;;;7.85;2.70;;;23.80;59.60;;;;;;5014885;28;20156;-76
2021/06/01 10:54:42;;;;;;;2.13;2.00;;;23.60;60.40;;;;;;5015648;28;20082;-76
2021/06/01 10:57:09;;;;;;;3.40;2.88;;;23.80;61.10;;;;;;5002663;28;20023;-73
2021/06/01 10:59:49;;;;;;;7.63;2.83;;;23.80;59.40;;;;;;5000306;28;20101;-75
2021/06/01 11:02:16;;;;;;;5.20;2.00;;;23.80;59.50;;;;;;4998311;28;20555;-75
2021/06/01 11:05:10;;;;;;;5.10;2.75;;;24.20;61.20;;;;;;5013390;28;20018;-76
2021/06/01 11:07:51;;;;;;;2.88;2.47;;;24.60;58.20;;;;;;5004084;28;20463;-74
2021/06/01 11:10:35;;;;;;;6.60;2.53;;;24.80;60.00;;;;;;5002762;28;20026;-73
2021/06/01 11:13:01;;;;;;;6.63;3.05;;;24.90;59.60;;;;;;4995779;28;20734;-75
2021/06/01 11:15:29;;;;;;;7.88;3.70;;;25.00;58.70;;;;;;4999962;28;20054;-77
2021/06/01 11:18:16;;;;;;;3.53;2.83;;;24.70;57.20;;;;;;5011026;28;20030;-77
2021/06/01 11:21:14;;;;;;;4.30;3.28;;;24.80;57.90;;;;;;5008223;28;20018;-75
2021/06/01 11:35:41;;;;;;;3.10;2.67;;;24.80;57.80;;;;;;5022988;28;20042;-79
2021/06/01 11:41:00;;;;;;;4.05;2.47;;;25.30;58.40;;;;;;5000125;28;20026;-76
2021/06/01 11:43:26;;;;;;;7.78;4.22;;;25.50;58.00;;;;;;5000227;28;20080;-76
2021/06/01 11:46:22;;;;;;;8.20;4.40;;;25.20;58.40;;;;;;5002902;28;20503;-74
2021/06/01 11:51:18;;;;;;;5.13;4.13;;;24.80;58.70;;;;;;5000381;28;20030;-75
2021/06/01 11:53:46;;;;;;;9.02;4.10;;;24.90;58.80;;;;;;5006487;28;20049;-74
2021/06/01 11:56:18;;;;;;;9.75;4.38;;;24.50;58.50;;;;;;5000511;28;20023;-75
2021/06/01 12:02:11;;;;;;;6.80;4.43;;;24.70;59.60;;;;;;5010650;28;20029;-76
2021/06/01 12:18:39;;;;;;;6.95;3.28;;;25.90;56.60;;;;;;5014304;28;20053;-78
2021/06/01 12:21:07;;;;;;;3.35;3.03;;;25.90;55.10;;;;;;5004567;28;20026;-76
2021/06/01 12:23:40;;;;;;;5.32;3.35;;;25.80;57.50;;;;;;5015570;28;20033;-75
2021/06/01 12:26:31;;;;;;;3.80;2.78;;;26.10;55.70;;;;;;5025734;28;20018;-75
2021/06/01 12:31:59;;;;;;;3.03;2.42;;;26.20;56.30;;;;;;5009721;28;20033;-76
2021/06/01 12:34:45;;;;;;;7.13;3.30;;;26.40;56.50;;;;;;5030833;28;20022;-78
2021/06/01 13:21:50;;;;;;;11.02;2.72;;;25.70;53.30;;;;;;5010230;28;20539;-77
2021/06/01 13:46:09;;;;;;;4.10;3.13;;;26.10;55.20;;;;;;5005381;28;20025;-77
2021/06/01 13:48:59;;;;;;;3.67;2.80;;;25.70;54.20;;;;;;4996637;28;20078;-77
2021/06/01 13:56:36;;;;;;;4.65;2.88;;;25.20;55.00;;;;;;4997927;28;20133;-76
2021/06/01 14:10:50;;;;;;;4.60;2.55;;;25.60;55.80;;;;;;5001598;28;20042;-78
2021/06/01 15:32:36;;;;;;;5.72;3.88;;;25.40;56.00;;;;;;5013233;28;20495;-75
2021/06/01 15:49:14;;;;;;;6.60;4.32;;;25.20;56.00;;;;;;5019512;28;20025;-77
2021/06/01 16:22:16;;;;;;;4.07;3.67;;;25.80;55.40;;;;;;5007110;28;20030;-77
2021/06/01 16:43:46;;;;;;;6.97;3.63;;;25.80;54.70;;;;;;5000253;28;20037;-77
2021/06/01 17:05:50;;;;;;;7.80;2.70;;;26.00;55.60;;;;;;5002732;28;20387;-76
2021/06/01 17:11:13;;;;;;;8.95;3.80;;;25.80;55.50;;;;;;5001512;28;20614;-76
2021/06/01 17:13:48;;;;;;;4.70;2.92;;;25.70;55.30;;;;;;4999304;28;20058;-76
2021/06/01 17:17:14;;;;;;;3.97;2.63;;;25.60;56.40;;;;;;5001319;28;20034;-74
2021/06/01 17:19:31;;;;;;;7.57;3.28;;;25.60;56.70;;;;;;4996852;28;20651;-75
2021/06/01 17:22:21;;;;;;;8.48;2.97;;;25.40;57.10;;;;;;5003363;28;20026;-75
2021/06/01 17:35:33;;;;;;;8.68;2.47;;;25.20;56.50;;;;;;5002448;28;20084;-76
2021/06/01 17:38:03;;;;;;;2.40;2.20;;;25.10;57.30;;;;;;4999010;28;20030;-76
2021/06/01 17:40:29;;;;;;;5.57;2.03;;;25.10;57.80;;;;;;5004089;28;20384;-76
2021/06/01 17:43:06;;;;;;;5.55;2.35;;;25.10;58.20;;;;;;5004139;28;20018;-77
2021/06/01 17:45:35;;;;;;;10.15;3.53;;;25.00;58.20;;;;;;5006080;28;20137;-75
2021/06/01 17:48:05;;;;;;;2.42;2.20;;;25.00;57.40;;;;;;4996310;28;20034;-74
2021/06/01 17:50:33;;;;;;;4.95;2.30;;;25.00;57.50;;;;;;4999471;28;20049;-75
2021/06/01 17:53:01;;;;;;;8.93;2.38;;;24.90;57.50;;;;;;5007111;28;20027;-76
2021/06/01 17:55:29;;;;;;;3.42;2.38;;;24.80;57.50;;;;;;4995992;28;20541;-75
2021/06/01 17:57:56;;;;;;;3.58;2.40;;;25.00;58.20;;;;;;4998812;28;20026;-76
2021/06/01 18:00:22;;;;;;;6.50;2.80;;;25.00;58.80;;;;;;4999849;28;20018;-78
2021/06/01 18:02:49;;;;;;;5.13;2.42;;;25.10;58.50;;;;;;5007926;28;20022;-77
2021/06/01 18:05:18;;;;;;;4.13;2.15;;;25.10;57.10;;;;;;5003230;28;20077;-75
2021/06/01 18:13:47;;;;;;;3.07;1.97;;;25.60;58.50;;;;;;5002731;28;20538;-76
2021/06/01 19:51:07;;;;;;;8.48;5.13;;;22.70;65.20;;;;;;5016910;28;20029;-78
2021/06/01 19:53:36;;;;;;;7.15;4.55;;;22.80;65.40;;;;;;5026781;28;20018;-77
2021/06/01 19:56:04;;;;;;;7.63;3.28;;;22.70;65.50;;;;;;5025304;28;20058;-77
2021/06/01 19:58:35;;;;;;;4.45;3.20;;;22.60;65.80;;;;;;5015546;28;20022;-76
2021/06/01 20:01:07;;;;;;;6.03;3.63;;;22.60;66.10;;;;;;5001555;28;20026;-77
2021/06/01 20:03:34;;;;;;;7.45;3.72;;;22.40;66.40;;;;;;4998323;28;20109;-78
2021/06/01 20:06:08;;;;;;;6.35;4.07;;;22.40;67.00;;;;;;5018728;28;20006;-76
2021/06/01 20:08:34;;;;;;;5.07;3.65;;;22.30;67.20;;;;;;5021607;28;20041;-78
2021/06/01 20:11:00;;;;;;;6.70;4.32;;;22.30;67.30;;;;;;5023455;28;20045;-77
2021/06/01 20:13:26;;;;;;;9.35;5.85;;;22.20;67.60;;;;;;5022111;28;20132;-77